Island Grove, Illinois
Current Conditions -  °F | °C
As of 7:15 PM on Sunday 21 Dec 2014 (Local Time) from K1H2 Reporting Station
Clear Clear  
Wind Chill: 27°   Ceiling: Unl
Heat Index: 35°   Visibility: 10mi
Dew Point: 28°   Wind: 10mph
Humidity: 76%   Direction: 100°E
Pressure: 30.08"   Gusts: NA
Location:  39.1301°N, 88.4695°W
Report Text: K1H2 220115Z AUTO 10009KT 10SM CLR 02/M02 A3008 RMK AO2 T00161023
Loading
Personal Weather Stations






























Interactive Weather Map New forecast layout! Learn more

10-Day Weather Forecast

Advertisements
Track Severe Weather on mobile